sensor_id;sensor_type;location;lat;lon;timestamp;pressure;altitude;pressure_sealevel;temperature;humidity
23446;BME280;11895;48.738;9.320;2023-02-19T00:02:25;99312.75;;;13.40;100.00
23446;BME280;11895;48.738;9.320;2023-02-19T00:04:53;99304.81;;;13.54;100.00
23446;BME280;11895;48.738;9.320;2023-02-19T00:07:21;99306.66;;;13.54;100.00
23446;BME280;11895;48.738;9.320;2023-02-19T00:09:48;99309.78;;;13.63;100.00
23446;BME280;11895;48.738;9.320;2023-02-19T00:12:16;99312.31;;;13.49;100.00
23446;BME280;11895;48.738;9.320;2023-02-19T00:14:43;99316.94;;;13.65;100.00
23446;BME280;11895;48.738;9.320;2023-02-19T00:17:17;99312.59;;;13.43;100.00
23446;BME280;11895;48.738;9.320;2023-02-19T00:19:44;99306.81;;;13.51;100.00
23446;BME280;11895;48.738;9.320;2023-02-19T00:22:12;99314.03;;;13.50;100.00
23446;BME280;11895;48.738;9.320;2023-02-19T00:24:39;99309.47;;;13.33;100.00
23446;BME280;11895;48.738;9.320;2023-02-19T00:27:06;99312.34;;;13.11;100.00
23446;BME280;11895;48.738;9.320;2023-02-19T00:29:34;99307.56;;;13.17;100.00
23446;BME280;11895;48.738;9.320;2023-02-19T00:32:01;99304.13;;;13.13;100.00
23446;BME280;11895;48.738;9.320;2023-02-19T00:34:29;99308.38;;;13.00;100.00
23446;BME280;11895;48.738;9.320;2023-02-19T00:36:56;99293.50;;;12.91;100.00
23446;BME280;11895;48.738;9.320;2023-02-19T00:39:29;99294.59;;;12.87;100.00
23446;BME280;11895;48.738;9.320;2023-02-19T00:41:56;99296.47;;;13.04;100.00
23446;BME280;11895;48.738;9.320;2023-02-19T00:44:25;99302.41;;;12.93;100.00
23446;BME280;11895;48.738;9.320;2023-02-19T00:46:52;99300.91;;;13.05;100.00
23446;BME280;11895;48.738;9.320;2023-02-19T00:49:22;99300.34;;;13.17;100.00
23446;BME280;11895;48.738;9.320;2023-02-19T00:51:51;99307.94;;;13.28;100.00
23446;BME280;11895;48.738;9.320;2023-02-19T00:54:19;99305.75;;;13.36;100.00
23446;BME280;11895;48.738;9.320;2023-02-19T00:56:49;99304.00;;;13.16;100.00
23446;BME280;11895;48.738;9.320;2023-02-19T00:59:17;99313.06;;;13.15;100.00
23446;BME280;11895;48.738;9.320;2023-02-19T01:01:44;99309.03;;;13.24;100.00
23446;BME280;11895;48.738;9.320;2023-02-19T01:04:12;99313.94;;;13.16;100.00
23446;BME280;11895;48.738;9.320;2023-02-19T01:06:40;99308.97;;;13.06;100.00
23446;BME280;11895;48.738;9.320;2023-02-19T01:09:07;99303.16;;;12.97;100.00
23446;BME280;11895;48.738;9.320;2023-02-19T01:11:35;99289.22;;;13.04;100.00
23446;BME280;11895;48.738;9.320;2023-02-19T01:14:03;99287.47;;;13.03;100.00
23446;BME280;11895;48.738;9.320;2023-02-19T02:05:07;99247.75;;;13.59;100.00
23446;BME280;11895;48.738;9.320;2023-02-19T02:11:50;99242.09;;;13.63;100.00
23446;BME280;11895;48.738;9.320;2023-02-19T02:22:02;99245.44;;;13.51;100.00
23446;BME280;11895;48.738;9.320;2023-02-19T02:28:52;99249.16;;;13.31;100.00
23446;BME280;11895;48.738;9.320;2023-02-19T02:31:37;99256.00;;;13.38;100.00
23446;BME280;11895;48.738;9.320;2023-02-19T02:34:17;99252.50;;;13.36;100.00
23446;BME280;11895;48.738;9.320;2023-02-19T02:36:54;99245.72;;;13.28;100.00
23446;BME280;11895;48.738;9.320;2023-02-19T02:39:30;99233.06;;;13.28;100.00
23446;BME280;11895;48.738;9.320;2023-02-19T02:42:00;99225.03;;;13.27;100.00
23446;BME280;11895;48.738;9.320;2023-02-19T02:44:57;99227.38;;;13.16;100.00
23446;BME280;11895;48.738;9.320;2023-02-19T02:57:13;99226.91;;;12.89;100.00
23446;BME280;11895;48.738;9.320;2023-02-19T02:59:55;99230.94;;;12.80;100.00
23446;BME280;11895;48.738;9.320;2023-02-19T03:02:28;99215.97;;;12.92;100.00
23446;BME280;11895;48.738;9.320;2023-02-19T03:05:22;99226.84;;;12.90;100.00
23446;BME280;11895;48.738;9.320;2023-02-19T03:08:19;99220.56;;;12.90;100.00
23446;BME280;11895;48.738;9.320;2023-02-19T03:11:09;99224.53;;;12.82;100.00
23446;BME280;11895;48.738;9.320;2023-02-19T03:14:17;99219.66;;;12.72;100.00
23446;BME280;11895;48.738;9.320;2023-02-19T03:17:46;99221.59;;;12.87;100.00
23446;BME280;11895;48.738;9.320;2023-02-19T03:20:39;99217.13;;;12.86;100.00
23446;BME280;11895;48.738;9.320;2023-02-19T03:23:09;99222.34;;;12.72;100.00
23446;BME280;11895;48.738;9.320;2023-02-19T03:25:38;99221.53;;;12.70;100.00
23446;BME280;11895;48.738;9.320;2023-02-19T03:28:42;99220.25;;;12.59;100.00
23446;BME280;11895;48.738;9.320;2023-02-19T03:31:36;99218.28;;;12.63;100.00
23446;BME280;11895;48.738;9.320;2023-02-19T03:34:11;99217.63;;;12.58;100.00
23446;BME280;11895;48.738;9.320;2023-02-19T03:36:49;99219.44;;;12.57;100.00
23446;BME280;11895;48.738;9.320;2023-02-19T03:39:22;99224.25;;;12.51;100.00
23446;BME280;11895;48.738;9.320;2023-02-19T03:42:35;99221.50;;;12.52;100.00
23446;BME280;11895;48.738;9.320;2023-02-19T03:45:24;99226.91;;;12.33;100.00
23446;BME280;11895;48.738;9.320;2023-02-19T03:48:33;99224.19;;;12.33;100.00
23446;BME280;11895;48.738;9.320;2023-02-19T03:51:26;99223.59;;;12.46;100.00
23446;BME280;11895;48.738;9.320;2023-02-19T03:54:36;99244.25;;;12.47;100.00
23446;BME280;11895;48.738;9.320;2023-02-19T03:57:33;99238.59;;;12.53;100.00
23446;BME280;11895;48.738;9.320;2023-02-19T04:05:31;99238.56;;;12.34;100.00
23446;BME280;11895;48.738;9.320;2023-02-19T04:08:15;99243.69;;;12.40;100.00
23446;BME280;11895;48.738;9.320;2023-02-19T04:10:52;99246.59;;;12.54;100.00
23446;BME280;11895;48.738;9.320;2023-02-19T04:13:41;99250.69;;;12.63;100.00
23446;BME280;11895;48.738;9.320;2023-02-19T04:16:19;99250.19;;;12.74;100.00
23446;BME280;11895;48.738;9.320;2023-02-19T04:18:53;99251.88;;;12.57;100.00
23446;BME280;11895;48.738;9.320;2023-02-19T04:21:23;99253.31;;;12.65;100.00
23446;BME280;11895;48.738;9.320;2023-02-19T04:23:51;99259.81;;;12.60;100.00
23446;BME280;11895;48.738;9.320;2023-02-19T04:26:21;99257.09;;;12.79;100.00
23446;BME280;11895;48.738;9.320;2023-02-19T04:28:48;99260.34;;;12.69;100.00
23446;BME280;11895;48.738;9.320;2023-02-19T04:31:16;99258.38;;;12.72;100.00
23446;BME280;11895;48.738;9.320;2023-02-19T04:33:43;99255.38;;;12.59;100.00
23446;BME280;11895;48.738;9.320;2023-02-19T04:36:10;99254.19;;;12.65;100.00
23446;BME280;11895;48.738;9.320;2023-02-19T04:38:38;99267.94;;;12.60;100.00
23446;BME280;11895;48.738;9.320;2023-02-19T04:41:05;99265.81;;;12.48;100.00
23446;BME280;11895;48.738;9.320;2023-02-19T04:43:33;99279.34;;;12.67;100.00
23446;BME280;11895;48.738;9.320;2023-02-19T04:46:02;99277.06;;;12.77;100.00
23446;BME280;11895;48.738;9.320;2023-02-19T04:48:30;99274.41;;;12.56;100.00
23446;BME280;11895;48.738;9.320;2023-02-19T04:50:58;99273.56;;;12.75;100.00
23446;BME280;11895;48.738;9.320;2023-02-19T04:53:26;99284.13;;;12.60;100.00
23446;BME280;11895;48.738;9.320;2023-02-19T04:55:53;99291.06;;;12.47;100.00
23446;BME280;11895;48.738;9.320;2023-02-19T04:58:20;99296.88;;;12.58;100.00
23446;BME280;11895;48.738;9.320;2023-02-19T05:00:51;99293.94;;;12.63;100.00
23446;BME280;11895;48.738;9.320;2023-02-19T05:03:19;99300.66;;;12.73;100.00
23446;BME280;11895;48.738;9.320;2023-02-19T05:05:46;99301.53;;;12.55;100.00
23446;BME280;11895;48.738;9.320;2023-02-19T05:08:14;99302.84;;;12.65;100.00
23446;BME280;11895;48.738;9.320;2023-02-19T05:10:42;99295.25;;;12.54;100.00
23446;BME280;11895;48.738;9.320;2023-02-19T05:13:09;99293.22;;;12.59;100.00
23446;BME280;11895;48.738;9.320;2023-02-19T05:15:37;99291.28;;;12.61;100.00
23446;BME280;11895;48.738;9.320;2023-02-19T05:18:05;99284.00;;;12.64;100.00
23446;BME280;11895;48.738;9.320;2023-02-19T05:20:32;99293.06;;;12.63;100.00
23446;BME280;11895;48.738;9.320;2023-02-19T05:22:59;99300.44;;;12.78;100.00
23446;BME280;11895;48.738;9.320;2023-02-19T05:25:26;99301.97;;;12.65;100.00
23446;BME280;11895;48.738;9.320;2023-02-19T05:27:53;99304.31;;;12.72;100.00
23446;BME280;11895;48.738;9.320;2023-02-19T05:30:47;99294.81;;;12.82;100.00
23446;BME280;11895;48.738;9.320;2023-02-19T05:33:21;99287.72;;;12.80;100.00
23446;BME280;11895;48.738;9.320;2023-02-19T05:35:54;99284.75;;;12.67;100.00
23446;BME280;11895;48.738;9.320;2023-02-19T05:38:23;99283.72;;;12.70;100.00
23446;BME280;11895;48.738;9.320;2023-02-19T05:40:50;99293.50;;;12.53;100.00
23446;BME280;11895;48.738;9.320;2023-02-19T05:43:18;99293.44;;;12.74;100.00
23446;BME280;11895;48.738;9.320;2023-02-19T05:45:45;99298.03;;;12.72;100.00
23446;BME280;11895;48.738;9.320;2023-02-19T05:48:13;99296.78;;;12.60;100.00
23446;BME280;11895;48.738;9.320;2023-02-19T05:50:41;99310.44;;;12.76;100.00
23446;BME280;11895;48.738;9.320;2023-02-19T05:53:11;99300.22;;;12.64;100.00
23446;BME280;11895;48.738;9.320;2023-02-19T05:55:39;99309.28;;;12.63;100.00
23446;BME280;11895;48.738;9.320;2023-02-19T05:58:06;99305.16;;;12.35;100.00
23446;BME280;11895;48.738;9.320;2023-02-19T06:00:33;99309.94;;;12.49;100.00
23446;BME280;11895;48.738;9.320;2023-02-19T06:03:01;99306.63;;;12.42;100.00
23446;BME280;11895;48.738;9.320;2023-02-19T06:05:31;99313.50;;;12.49;100.00
23446;BME280;11895;48.738;9.320;2023-02-19T06:08:00;99318.03;;;12.49;100.00
23446;BME280;11895;48.738;9.320;2023-02-19T06:10:29;99327.34;;;12.42;100.00
23446;BME280;11895;48.738;9.320;2023-02-19T06:13:11;99326.34;;;12.44;100.00
23446;BME280;11895;48.738;9.320;2023-02-19T06:15:48;99340.41;;;12.52;100.00
23446;BME280;11895;48.738;9.320;2023-02-19T06:18:22;99343.22;;;12.49;100.00
23446;BME280;11895;48.738;9.320;2023-02-19T06:20:53;99344.13;;;12.29;100.00
23446;BME280;11895;48.738;9.320;2023-02-19T06:23:22;99358.13;;;12.19;100.00
23446;BME280;11895;48.738;9.320;2023-02-19T06:26:26;99361.84;;;11.96;100.00
23446;BME280;11895;48.738;9.320;2023-02-19T06:29:20;99369.69;;;11.80;100.00
23446;BME280;11895;48.738;9.320;2023-02-19T06:31:54;99378.66;;;11.80;100.00
23446;BME280;11895;48.738;9.320;2023-02-19T06:34:36;99391.22;;;11.59;100.00
23446;BME280;11895;48.738;9.320;2023-02-19T06:37:17;99389.56;;;11.55;100.00
23446;BME280;11895;48.738;9.320;2023-02-19T06:40:04;99395.06;;;11.32;100.00
23446;BME280;11895;48.738;9.320;2023-02-19T06:42:36;99389.44;;;11.15;100.00
23446;BME280;11895;48.738;9.320;2023-02-19T06:45:10;99401.91;;;10.95;100.00
23446;BME280;11895;48.738;9.320;2023-02-19T06:47:45;99396.50;;;10.95;100.00
23446;BME280;11895;48.738;9.320;2023-02-19T06:50:35;99395.28;;;11.04;100.00
23446;BME280;11895;48.738;9.320;2023-02-19T06:53:05;99388.66;;;11.13;100.00
23446;BME280;11895;48.738;9.320;2023-02-19T06:55:43;99398.94;;;11.25;100.00
23446;BME280;11895;48.738;9.320;2023-02-19T06:58:21;99400.25;;;11.15;100.00
23446;BME280;11895;48.738;9.320;2023-02-19T07:01:00;99407.56;;;11.11;100.00
23446;BME280;11895;48.738;9.320;2023-02-19T07:03:31;99403.25;;;11.29;100.00
23446;BME280;11895;48.738;9.320;2023-02-19T07:06:06;99401.19;;;11.36;100.00
23446;BME280;11895;48.738;9.320;2023-02-19T07:08:41;99413.06;;;11.31;100.00
23446;BME280;11895;48.738;9.320;2023-02-19T07:11:20;99412.47;;;11.45;100.00
23446;BME280;11895;48.738;9.320;2023-02-19T07:14:00;99418.72;;;11.47;100.00
23446;BME280;11895;48.738;9.320;2023-02-19T07:16:42;99427.34;;;11.55;100.00
23446;BME280;11895;48.738;9.320;2023-02-19T07:19:32;99423.34;;;11.22;100.00
23446;BME280;11895;48.738;9.320;2023-02-19T07:22:07;99421.69;;;11.18;100.00
23446;BME280;11895;48.738;9.320;2023-02-19T07:24:49;99430.13;;;11.09;100.00
23446;BME280;11895;48.738;9.320;2023-02-19T07:27:29;99459.56;;;11.15;100.00
23446;BME280;11895;48.738;9.320;2023-02-19T07:30:11;99451.22;;;10.97;100.00
23446;BME280;11895;48.738;9.320;2023-02-19T07:32:53;99452.66;;;11.07;100.00
23446;BME280;11895;48.738;9.320;2023-02-19T07:35:34;99452.41;;;11.14;100.00
23446;BME280;11895;48.738;9.320;2023-02-19T07:38:04;99439.75;;;11.16;100.00
23446;BME280;11895;48.738;9.320;2023-02-19T07:40:40;99440.69;;;11.15;100.00
23446;BME280;11895;48.738;9.320;2023-02-19T07:43:12;99453.56;;;11.30;100.00
23446;BME280;11895;48.738;9.320;2023-02-19T07:45:53;99445.69;;;11.47;100.00
23446;BME280;11895;48.738;9.320;2023-02-19T07:48:39;99440.56;;;11.41;100.00
23446;BME280;11895;48.738;9.320;2023-02-19T07:51:17;99452.59;;;11.54;100.00
23446;BME280;11895;48.738;9.320;2023-02-19T07:54:03;99434.00;;;11.69;100.00
23446;BME280;11895;48.738;9.320;2023-02-19T07:56:44;99430.13;;;11.54;100.00
23446;BME280;11895;48.738;9.320;2023-02-19T07:59:17;99441.56;;;11.61;100.00
23446;BME280;11895;48.738;9.320;2023-02-19T08:01:55;99441.31;;;11.89;100.00
23446;BME280;11895;48.738;9.320;2023-02-19T08:04:56;99436.28;;;12.01;100.00
23446;BME280;11895;48.738;9.320;2023-02-19T08:07:33;99432.59;;;12.24;100.00
23446;BME280;11895;48.738;9.320;2023-02-19T08:10:04;99448.19;;;12.18;100.00
23446;BME280;11895;48.738;9.320;2023-02-19T08:13:02;99441.44;;;12.28;100.00
23446;BME280;11895;48.738;9.320;2023-02-19T08:16:12;99438.22;;;12.40;100.00
23446;BME280;11895;48.738;9.320;2023-02-19T08:19:04;99438.31;;;12.37;100.00
23446;BME280;11895;48.738;9.320;2023-02-19T08:22:03;99441.19;;;12.54;100.00
23446;BME280;11895;48.738;9.320;2023-02-19T08:24:38;99457.94;;;12.63;100.00
23446;BME280;11895;48.738;9.320;2023-02-19T08:27:19;99461.81;;;12.76;100.00
23446;BME280;11895;48.738;9.320;2023-02-19T08:29:53;99482.44;;;12.78;100.00
23446;BME280;11895;48.738;9.320;2023-02-19T08:32:24;99487.91;;;12.97;100.00
23446;BME280;11895;48.738;9.320;2023-02-19T08:34:59;99491.38;;;12.60;100.00
23446;BME280;11895;48.738;9.320;2023-02-19T08:37:54;99490.19;;;12.86;100.00
23446;BME280;11895;48.738;9.320;2023-02-19T08:40:32;99518.19;;;12.44;100.00
23446;BME280;11895;48.738;9.320;2023-02-19T08:43:26;99505.50;;;12.04;100.00
23446;BME280;11895;48.738;9.320;2023-02-19T08:46:05;99500.47;;;11.95;100.00
23446;BME280;11895;48.738;9.320;2023-02-19T08:48:51;99497.69;;;11.96;100.00
23446;BME280;11895;48.738;9.320;2023-02-19T08:51:47;99503.56;;;12.28;100.00
23446;BME280;11895;48.738;9.320;2023-02-19T08:54:19;99500.63;;;12.34;100.00
23446;BME280;11895;48.738;9.320;2023-02-19T08:56:51;99500.22;;;12.64;100.00
23446;BME280;11895;48.738;9.320;2023-02-19T08:59:20;99515.34;;;12.47;100.00
23446;BME280;11895;48.738;9.320;2023-02-19T09:01:57;99512.66;;;12.68;100.00
23446;BME280;11895;48.738;9.320;2023-02-19T09:04:26;99513.34;;;12.52;100.00
23446;BME280;11895;48.738;9.320;2023-02-19T09:07:02;99520.53;;;11.88;100.00
23446;BME280;11895;48.738;9.320;2023-02-19T09:09:38;99523.31;;;12.08;100.00
23446;BME280;11895;48.738;9.320;2023-02-19T09:12:12;99538.47;;;12.32;100.00
23446;BME280;11895;48.738;9.320;2023-02-19T09:14:47;99537.50;;;12.13;100.00
23446;BME280;11895;48.738;9.320;2023-02-19T09:17:21;99537.84;;;12.48;100.00
23446;BME280;11895;48.738;9.320;2023-02-19T09:19:54;99547.69;;;12.28;100.00
23446;BME280;11895;48.738;9.320;2023-02-19T09:22:34;99550.19;;;12.33;100.00
23446;BME280;11895;48.738;9.320;2023-02-19T09:25:05;99560.50;;;12.23;100.00
23446;BME280;11895;48.738;9.320;2023-02-19T09:27:43;99549.53;;;12.48;100.00
23446;BME280;11895;48.738;9.320;2023-02-19T09:30:20;99550.50;;;12.68;100.00
23446;BME280;11895;48.738;9.320;2023-02-19T09:32:52;99551.50;;;12.65;100.00
23446;BME280;11895;48.738;9.320;2023-02-19T09:35:26;99560.66;;;12.63;100.00
23446;BME280;11895;48.738;9.320;2023-02-19T09:37:57;99558.22;;;12.77;100.00
23446;BME280;11895;48.738;9.320;2023-02-19T09:40:38;99552.16;;;12.72;100.00
23446;BME280;11895;48.738;9.320;2023-02-19T09:43:16;99550.06;;;13.18;100.00
23446;BME280;11895;48.738;9.320;2023-02-19T09:46:04;99550.16;;;12.96;100.00
23446;BME280;11895;48.738;9.320;2023-02-19T09:48:50;99554.00;;;12.70;100.00
23446;BME280;11895;48.738;9.320;2023-02-19T09:51:27;99547.41;;;12.97;100.00
23446;BME280;11895;48.738;9.320;2023-02-19T09:53:58;99556.56;;;13.34;100.00
23446;BME280;11895;48.738;9.320;2023-02-19T09:56:42;99569.09;;;13.16;100.00
23446;BME280;11895;48.738;9.320;2023-02-19T09:59:21;99566.03;;;13.44;100.00
23446;BME280;11895;48.738;9.320;2023-02-19T10:02:24;99564.56;;;13.17;100.00
23446;BME280;11895;48.738;9.320;2023-02-19T10:04:59;99566.31;;;13.18;100.00
23446;BME280;11895;48.738;9.320;2023-02-19T10:07:47;99578.88;;;13.19;100.00
23446;BME280;11895;48.738;9.320;2023-02-19T10:10:32;99549.56;;;13.30;100.00
23446;BME280;11895;48.738;9.320;2023-02-19T10:13:21;99543.81;;;13.56;97.21
23446;BME280;11895;48.738;9.320;2023-02-19T10:16:04;99547.09;;;13.63;96.29
23446;BME280;11895;48.738;9.320;2023-02-19T10:19:16;99549.81;;;13.82;96.49
23446;BME280;11895;48.738;9.320;2023-02-19T10:22:00;99556.09;;;14.01;92.65
23446;BME280;11895;48.738;9.320;2023-02-19T10:24:38;99557.25;;;14.14;92.22
23446;BME280;11895;48.738;9.320;2023-02-19T10:27:24;99556.78;;;14.24;90.44
23446;BME280;11895;48.738;9.320;2023-02-19T10:30:07;99550.31;;;13.90;94.32
23446;BME280;11895;48.738;9.320;2023-02-19T10:33:09;99568.41;;;13.71;97.75
23446;BME280;11895;48.738;9.320;2023-02-19T10:36:02;99564.50;;;13.95;94.79
23446;BME280;11895;48.738;9.320;2023-02-19T10:39:21;99575.78;;;13.86;97.90
23446;BME280;11895;48.738;9.320;2023-02-19T10:41:53;99566.78;;;14.04;99.04
23446;BME280;11895;48.738;9.320;2023-02-19T10:44:44;99577.94;;;13.98;97.70
23446;BME280;11895;48.738;9.320;2023-02-19T10:47:37;99578.56;;;14.22;96.86
23446;BME280;11895;48.738;9.320;2023-02-19T10:50:28;99589.84;;;14.13;98.21
23446;BME280;11895;48.738;9.320;2023-02-19T10:53:21;99601.53;;;13.76;97.20
23446;BME280;11895;48.738;9.320;2023-02-19T10:56:25;99593.72;;;14.07;96.25
23446;BME280;11895;48.738;9.320;2023-02-19T11:02:02;99590.53;;;14.54;92.56
23446;BME280;11895;48.738;9.320;2023-02-19T11:08:01;99587.19;;;14.11;92.69
23446;BME280;11895;48.738;9.320;2023-02-19T11:10:50;99601.38;;;14.17;95.67
23446;BME280;11895;48.738;9.320;2023-02-19T11:13:40;99589.53;;;14.00;89.75
23446;BME280;11895;48.738;9.320;2023-02-19T11:16:38;99569.16;;;14.48;85.92
23446;BME280;11895;48.738;9.320;2023-02-19T11:22:40;99578.28;;;14.82;83.52
23446;BME280;11895;48.738;9.320;2023-02-19T11:25:23;99578.22;;;14.47;82.08
23446;BME280;11895;48.738;9.320;2023-02-19T11:34:26;99586.19;;;13.95;84.09
23446;BME280;11895;48.738;9.320;2023-02-19T11:37:32;99571.25;;;14.05;83.62
23446;BME280;11895;48.738;9.320;2023-02-19T11:40:07;99583.78;;;14.44;81.46
23446;BME280;11895;48.738;9.320;2023-02-19T11:45:49;99588.34;;;14.80;78.28
23446;BME280;11895;48.738;9.320;2023-02-19T11:48:43;99578.66;;;14.38;80.25
23446;BME280;11895;48.738;9.320;2023-02-19T11:51:29;99584.94;;;14.57;79.14
23446;BME280;11895;48.738;9.320;2023-02-19T11:57:55;99589.91;;;14.84;80.81
23446;BME280;11895;48.738;9.320;2023-02-19T12:04:43;99609.03;;;14.63;81.89
23446;BME280;11895;48.738;9.320;2023-02-19T12:18:27;99606.81;;;14.17;87.89
23446;BME280;11895;48.738;9.320;2023-02-19T12:25:28;99596.72;;;14.01;88.50
23446;BME280;11895;48.738;9.320;2023-02-19T12:31:48;99599.47;;;14.37;84.58
23446;BME280;11895;48.738;9.320;2023-02-19T12:35:11;99569.16;;;14.48;82.38
23446;BME280;11895;48.738;9.320;2023-02-19T12:38:16;99588.97;;;15.20;77.14
23446;BME280;11895;48.738;9.320;2023-02-19T12:41:06;99591.69;;;14.85;77.12
23446;BME280;11895;48.738;9.320;2023-02-19T12:43:57;99596.63;;;14.77;75.99
23446;BME280;11895;48.738;9.320;2023-02-19T12:54:46;99590.00;;;14.46;81.87
23446;BME280;11895;48.738;9.320;2023-02-19T13:01:26;99596.94;;;14.71;77.50
23446;BME280;11895;48.738;9.320;2023-02-19T13:12:04;99567.78;;;16.08;66.10
23446;BME280;11895;48.738;9.320;2023-02-19T13:18:59;99576.22;;;15.37;69.75
23446;BME280;11895;48.738;9.320;2023-02-19T13:37:14;99593.22;;;13.99;81.07
23446;BME280;11895;48.738;9.320;2023-02-19T13:39:59;99592.91;;;13.68;87.32
23446;BME280;11895;48.738;9.320;2023-02-19T13:46:42;99593.66;;;13.90;83.07
23446;BME280;11895;48.738;9.320;2023-02-19T13:54:41;99570.38;;;13.67;86.86
23446;BME280;11895;48.738;9.320;2023-02-19T13:57:30;99581.69;;;13.56;88.90
23446;BME280;11895;48.738;9.320;2023-02-19T14:00:50;99568.75;;;14.01;86.30
23446;BME280;11895;48.738;9.320;2023-02-19T14:06:09;99563.53;;;14.15;84.10
23446;BME280;11895;48.738;9.320;2023-02-19T14:08:50;99573.91;;;13.88;85.58
23446;BME280;11895;48.738;9.320;2023-02-19T14:14:26;99576.66;;;14.05;83.40
23446;BME280;11895;48.738;9.320;2023-02-19T14:17:53;99581.50;;;14.18;84.21
23446;BME280;11895;48.738;9.320;2023-02-19T14:20:44;99573.25;;;14.38;81.81
23446;BME280;11895;48.738;9.320;2023-02-19T14:23:30;99571.25;;;14.05;83.48
23446;BME280;11895;48.738;9.320;2023-02-19T14:26:00;99573.00;;;14.06;84.55
23446;BME280;11895;48.738;9.320;2023-02-19T14:28:45;99580.50;;;13.43;89.24
23446;BME280;11895;48.738;9.320;2023-02-19T14:31:29;99581.63;;;13.77;86.99
23446;BME280;11895;48.738;9.320;2023-02-19T14:34:24;99582.38;;;13.80;87.90
23446;BME280;11895;48.738;9.320;2023-02-19T14:37:04;99588.81;;;13.97;86.50
23446;BME280;11895;48.738;9.320;2023-02-19T14:39:58;99599.03;;;13.52;89.36
23446;BME280;11895;48.738;9.320;2023-02-19T14:42:32;99594.31;;;13.37;89.84
23446;BME280;11895;48.738;9.320;2023-02-19T14:45:15;99588.19;;;13.52;90.59
23446;BME280;11895;48.738;9.320;2023-02-19T14:47:58;99589.94;;;13.53;90.90
23446;BME280;11895;48.738;9.320;2023-02-19T14:50:35;99594.41;;;13.35;91.46
23446;BME280;11895;48.738;9.320;2023-02-19T14:53:22;99599.19;;;13.49;90.39
23446;BME280;11895;48.738;9.320;2023-02-19T14:56:04;99598.75;;;13.58;89.08
23446;BME280;11895;48.738;9.320;2023-02-19T14:58:34;99610.94;;;13.69;87.58
23446;BME280;11895;48.738;9.320;2023-02-19T15:01:28;99613.97;;;13.61;86.46
23446;BME280;11895;48.738;9.320;2023-02-19T15:04:28;99613.41;;;13.54;87.74
23446;BME280;11895;48.738;9.320;2023-02-19T15:07:16;99608.66;;;13.39;90.65
23446;BME280;11895;48.738;9.320;2023-02-19T15:09:53;99619.38;;;13.22;92.33
23446;BME280;11895;48.738;9.320;2023-02-19T15:12:43;99621.13;;;13.23;92.88
23446;BME280;11895;48.738;9.320;2023-02-19T15:15:32;99632.66;;;13.06;95.48
23446;BME280;11895;48.738;9.320;2023-02-19T15:18:24;99636.47;;;13.22;94.08
23446;BME280;11895;48.738;9.320;2023-02-19T15:21:05;99646.44;;;13.22;94.39
23446;BME280;11895;48.738;9.320;2023-02-19T15:23:46;99636.41;;;13.24;94.68
23446;BME280;11895;48.738;9.320;2023-02-19T15:26:26;99643.81;;;13.19;96.21
23446;BME280;11895;48.738;9.320;2023-02-19T15:29:49;99655.59;;;13.38;95.03
23446;BME280;11895;48.738;9.320;2023-02-19T15:32:27;99649.50;;;13.53;93.12
23446;BME280;11895;48.738;9.320;2023-02-19T15:35:19;99653.91;;;13.15;97.27
23446;BME280;11895;48.738;9.320;2023-02-19T15:37:58;99658.59;;;13.32;95.92
23446;BME280;11895;48.738;9.320;2023-02-19T15:40:37;99669.19;;;13.16;98.92
23446;BME280;11895;48.738;9.320;2023-02-19T15:43:15;99657.28;;;13.20;98.62
23446;BME280;11895;48.738;9.320;2023-02-19T15:45:56;99663.53;;;13.43;97.47
23446;BME280;11895;48.738;9.320;2023-02-19T15:48:44;99661.03;;;13.38;97.23
23446;BME280;11895;48.738;9.320;2023-02-19T15:51:41;99655.44;;;13.00;100.00
23446;BME280;11895;48.738;9.320;2023-02-19T15:54:33;99655.00;;;12.89;100.00
23446;BME280;11895;48.738;9.320;2023-02-19T15:57:16;99650.16;;;12.97;100.00
23446;BME280;11895;48.738;9.320;2023-02-19T16:03:42;99647.88;;;13.08;100.00
23446;BME280;11895;48.738;9.320;2023-02-19T16:06:25;99669.06;;;12.77;100.00
23446;BME280;11895;48.738;9.320;2023-02-19T16:09:41;99657.72;;;12.89;100.00
23446;BME280;11895;48.738;9.320;2023-02-19T16:12:27;99659.03;;;13.01;100.00
23446;BME280;11895;48.738;9.320;2023-02-19T16:15:17;99662.44;;;12.84;100.00
23446;BME280;11895;48.738;9.320;2023-02-19T16:18:01;99664.16;;;12.86;100.00
23446;BME280;11895;48.738;9.320;2023-02-19T16:20:40;99664.38;;;13.02;100.00
23446;BME280;11895;48.738;9.320;2023-02-19T16:23:20;99660.31;;;13.12;100.00
23446;BME280;11895;48.738;9.320;2023-02-19T16:26:11;99670.16;;;12.93;100.00
23446;BME280;11895;48.738;9.320;2023-02-19T16:28:55;99679.47;;;12.86;100.00
23446;BME280;11895;48.738;9.320;2023-02-19T16:31:45;99681.38;;;12.84;100.00
23446;BME280;11895;48.738;9.320;2023-02-19T16:34:51;99679.19;;;12.72;100.00
23446;BME280;11895;48.738;9.320;2023-02-19T16:37:54;99672.69;;;12.76;100.00
23446;BME280;11895;48.738;9.320;2023-02-19T16:41:12;99675.47;;;12.96;100.00
23446;BME280;11895;48.738;9.320;2023-02-19T16:43:55;99675.56;;;12.93;100.00
23446;BME280;11895;48.738;9.320;2023-02-19T16:46:23;99674.91;;;12.88;100.00
23446;BME280;11895;48.738;9.320;2023-02-19T16:49:13;99668.91;;;12.80;100.00
23446;BME280;11895;48.738;9.320;2023-02-19T16:51:48;99665.25;;;12.81;100.00
23446;BME280;11895;48.738;9.320;2023-02-19T16:54:28;99669.44;;;12.68;100.00
23446;BME280;11895;48.738;9.320;2023-02-19T16:57:01;99673.56;;;12.76;100.00
23446;BME280;11895;48.738;9.320;2023-02-19T16:59:48;99672.97;;;12.48;100.00
23446;BME280;11895;48.738;9.320;2023-02-19T17:02:58;99677.47;;;12.47;100.00
23446;BME280;11895;48.738;9.320;2023-02-19T17:05:35;99688.59;;;12.61;100.00
23446;BME280;11895;48.738;9.320;2023-02-19T17:08:34;99685.41;;;12.74;100.00